Time;durP1;ratioP1;P1;durP2;ratioP2;P2;SDS_P1;SDS_P2;PMS_P1;PMS_P2;Temp;Humidity;BMP_temperature;BMP_pressure;BME280_temperature;BME280_humidity;BME280_pressure;Samples;Min_cycle;Max_cycle;Signal;HPM_P1;HPM_P2
2021/03/22 00:00:12;;;;;;;;;;;;;;;3.63;99.40;101915.16;5066822;28;19928;-85
2021/03/22 00:02:37;;;;;;;;;;;;;;;3.63;100.00;101921.31;5088935;28;19916;-83
2021/03/22 00:05:03;;;;;;;;;;;;;;;3.64;99.66;101927.47;5086584;28;19943;-83
2021/03/22 00:07:28;;;;;;;;;;;;;;;3.60;99.91;101924.16;5083300;28;19928;-84
2021/03/22 00:09:54;;;;;;;;;;;;;;;3.53;100.00;101922.81;5079994;28;19943;-85
2021/03/22 00:12:19;;;;;;;;;;;;;;;3.49;100.00;101913.34;5079535;28;20055;-86
2021/03/22 00:14:44;;;;;;;;;;;;;;;3.42;100.00;101914.63;5062865;28;19920;-86
2021/03/22 00:17:09;;;;;;;;;;;;;;;3.39;100.00;101908.56;5076844;28;19928;-86
2021/03/22 00:19:35;;;;;;;;;;;;;;;3.33;100.00;101906.25;5062300;28;19928;-84
2021/03/22 00:22:00;;;;;;;;;;;;;;;3.30;100.00;101913.53;5080870;28;20089;-83
2021/03/22 00:24:25;;;;;;;;;;;;;;;3.25;100.00;101905.88;5074733;28;19920;-85
2021/03/22 00:26:50;;;;;;;;;;;;;;;3.23;100.00;101922.81;5065040;28;20372;-82
2021/03/22 00:29:15;;;;;;;;;;;;;;;3.21;100.00;101917.59;5071479;28;20127;-85
2021/03/22 00:31:41;;;;;;;;;;;;;;;3.14;100.00;101916.25;5070707;28;19970;-84
2021/03/22 00:34:06;;;;;;;;;;;;;;;3.03;100.00;101910.72;5060734;28;20525;-84
2021/03/22 00:36:31;;;;;;;;;;;;;;;3.01;100.00;101907.28;5069805;28;19932;-82
2021/03/22 00:38:57;;;;;;;;;;;;;;;2.96;100.00;101898.72;5064711;28;20394;-83
2021/03/22 00:41:23;;;;;;;;;;;;;;;2.92;100.00;101901.56;5074512;28;20002;-84
2021/03/22 00:43:50;;;;;;;;;;;;;;;2.86;100.00;101907.22;5077478;28;19920;-84
2021/03/22 00:46:15;;;;;;;;;;;;;;;2.83;100.00;101893.28;5074220;28;20432;-84
2021/03/22 00:48:40;;;;;;;;;;;;;;;2.77;100.00;101902.44;5081025;28;20069;-84
2021/03/22 00:51:07;;;;;;;;;;;;;;;2.78;100.00;101898.00;5076017;28;19931;-85
2021/03/22 00:53:32;;;;;;;;;;;;;;;2.77;100.00;101905.09;5062141;28;20313;-82
2021/03/22 00:55:58;;;;;;;;;;;;;;;2.70;100.00;101899.28;5063660;28;20007;-85
2021/03/22 00:58:23;;;;;;;;;;;;;;;2.69;100.00;101896.72;5075359;28;20152;-85
2021/03/22 01:00:49;;;;;;;;;;;;;;;2.65;100.00;101893.38;5065215;28;19924;-83
2021/03/22 01:03:16;;;;;;;;;;;;;;;2.66;100.00;101894.25;5077940;28;19931;-82
2021/03/22 01:05:42;;;;;;;;;;;;;;;2.64;100.00;101893.47;5063622;28;20318;-84
2021/03/22 01:08:08;;;;;;;;;;;;;;;2.56;100.00;101885.97;5057458;28;19916;-83
2021/03/22 01:10:36;;;;;;;;;;;;;;;2.57;100.00;101881.50;5076735;28;19943;-84
2021/03/22 01:13:03;;;;;;;;;;;;;;;2.51;100.00;101882.69;5071568;28;19981;-85
2021/03/22 01:15:28;;;;;;;;;;;;;;;2.48;100.00;101878.44;5058066;28;20019;-85
2021/03/22 01:17:54;;;;;;;;;;;;;;;2.42;100.00;101877.91;5075164;28;20006;-84
2021/03/22 01:20:24;;;;;;;;;;;;;;;2.37;100.00;101872.00;5083373;28;19920;-84
2021/03/22 01:22:49;;;;;;;;;;;;;;;2.38;100.00;101865.78;5082109;28;20426;-86
2021/03/22 01:25:15;;;;;;;;;;;;;;;2.29;100.00;101861.00;5068863;28;20014;-82
2021/03/22 01:27:42;;;;;;;;;;;;;;;2.31;100.00;101859.13;5084993;28;19921;-82
2021/03/22 01:30:30;;;;;;;;;;;;;;;2.23;100.00;101862.19;5064090;28;19963;-82
2021/03/22 01:32:58;;;;;;;;;;;;;;;2.21;100.00;101866.69;5051123;28;20295;-84
2021/03/22 01:35:23;;;;;;;;;;;;;;;2.22;100.00;101856.03;5066884;28;19955;-84
2021/03/22 01:37:49;;;;;;;;;;;;;;;2.23;100.00;101848.94;5071956;28;20352;-82
2021/03/22 01:40:33;;;;;;;;;;;;;;;2.14;100.00;101857.38;5060911;28;19920;-83
2021/03/22 01:43:10;;;;;;;;;;;;;;;2.12;100.00;101851.31;5054423;28;19970;-82
2021/03/22 01:45:36;;;;;;;;;;;;;;;2.12;100.00;101849.50;5075561;28;19936;-84
2021/03/22 01:48:01;;;;;;;;;;;;;;;2.14;100.00;101842.34;5074042;28;19929;-86
2021/03/22 01:50:28;;;;;;;;;;;;;;;2.13;100.00;101840.66;5056606;28;19924;-82
2021/03/22 01:52:54;;;;;;;;;;;;;;;2.11;100.00;101842.53;5072942;28;20352;-84
2021/03/22 01:55:21;;;;;;;;;;;;;;;2.11;100.00;101839.03;5073786;28;19924;-85
2021/03/22 01:57:46;;;;;;;;;;;;;;;2.09;100.00;101844.38;5073022;28;19970;-86
2021/03/22 02:00:15;;;;;;;;;;;;;;;2.03;100.00;101840.28;5071890;28;19948;-82
2021/03/22 02:02:42;;;;;;;;;;;;;;;2.01;100.00;101836.88;5072206;28;19920;-82
2021/03/22 02:05:08;;;;;;;;;;;;;;;2.05;100.00;101836.72;5066393;28;19981;-86
2021/03/22 02:07:34;;;;;;;;;;;;;;;2.06;100.00;101838.41;5086452;28;19920;-83
2021/03/22 02:09:59;;;;;;;;;;;;;;;2.07;100.00;101846.25;5089455;28;19927;-83
2021/03/22 02:12:26;;;;;;;;;;;;;;;2.09;100.00;101846.19;5045243;28;19927;-85
2021/03/22 02:14:53;;;;;;;;;;;;;;;2.09;100.00;101846.19;5081081;28;19920;-83
2021/03/22 02:17:18;;;;;;;;;;;;;;;2.11;100.00;101845.16;5061271;28;19940;-85
2021/03/22 02:19:43;;;;;;;;;;;;;;;2.11;100.00;101839.03;5068327;28;19920;-85
2021/03/22 02:22:27;;;;;;;;;;;;;;;2.12;100.00;101841.56;5088174;28;19927;-84
2021/03/22 02:25:02;;;;;;;;;;;;;;;2.17;100.00;101834.22;5036568;28;20346;-85
2021/03/22 02:27:57;;;;;;;;;;;;;;;2.27;100.00;101842.50;5085136;28;20390;-87
2021/03/22 02:30:41;;;;;;;;;;;;;;;2.28;100.00;101836.28;5060972;28;19921;-82
2021/03/22 02:33:22;;;;;;;;;;;;;;;2.27;100.00;101839.88;5068051;28;19922;-84
2021/03/22 02:35:53;;;;;;;;;;;;;;;2.28;100.00;101841.59;5088779;28;20500;-84
2021/03/22 02:38:30;;;;;;;;;;;;;;;2.30;100.00;101836.19;5088347;28;19924;-82
2021/03/22 02:40:55;;;;;;;;;;;;;;;2.33;100.00;101842.19;5065905;28;19923;-82
2021/03/22 02:43:21;;;;;;;;;;;;;;;2.33;100.00;101831.59;5079765;28;19924;-83
2021/03/22 02:45:46;;;;;;;;;;;;;;;2.35;100.00;101839.44;5063260;28;19924;-85
2021/03/22 02:48:16;;;;;;;;;;;;;;;2.35;100.00;101840.28;5079523;28;20303;-82
2021/03/22 02:50:42;;;;;;;;;;;;;;;2.39;100.00;101847.16;5064600;28;19920;-83
2021/03/22 02:53:26;;;;;;;;;;;;;;;2.41;100.00;101849.69;5081066;28;19920;-84
2021/03/22 02:55:52;;;;;;;;;;;;;;;2.42;100.00;101846.13;5052117;28;19925;-84
2021/03/22 02:58:18;;;;;;;;;;;;;;;2.43;100.00;101843.38;5059541;28;19928;-82
2021/03/22 03:00:50;;;;;;;;;;;;;;;2.40;100.00;101842.69;5061684;28;19966;-83
2021/03/22 03:03:18;;;;;;;;;;;;;;;2.40;100.00;101843.56;5074916;28;20401;-84
2021/03/22 03:05:48;;;;;;;;;;;;;;;2.46;100.00;101845.84;5043498;28;19920;-83
2021/03/22 03:08:13;;;;;;;;;;;;;;;2.45;100.00;101844.16;5074510;28;20240;-84
2021/03/22 03:10:38;;;;;;;;;;;;;;;2.45;100.00;101845.97;5084193;28;19948;-84
2021/03/22 03:13:04;;;;;;;;;;;;;;;2.50;100.00;101843.88;5076726;28;19920;-82
2021/03/22 03:15:30;;;;;;;;;;;;;;;2.51;100.00;101839.47;5082770;28;20380;-83
2021/03/22 03:17:55;;;;;;;;;;;;;;;2.53;100.00;101842.84;5067450;28;19950;-86
2021/03/22 03:20:22;;;;;;;;;;;;;;;2.55;100.00;101843.63;5077634;28;19920;-85
2021/03/22 03:22:47;;;;;;;;;;;;;;;2.57;100.00;101850.56;5077693;28;19924;-85
2021/03/22 03:25:13;;;;;;;;;;;;;;;2.57;100.00;101847.91;5081165;28;20296;-82
2021/03/22 03:27:38;;;;;;;;;;;;;;;2.58;100.00;101852.25;5067188;28;19927;-82
2021/03/22 03:30:08;;;;;;;;;;;;;;;2.59;100.00;101853.97;5082227;28;19966;-83
2021/03/22 03:32:33;;;;;;;;;;;;;;;2.63;100.00;101857.31;5079073;28;19920;-84
2021/03/22 03:34:58;;;;;;;;;;;;;;;2.65;100.00;101852.78;5076228;28;19974;-84
2021/03/22 03:37:24;;;;;;;;;;;;;;;2.64;100.00;101851.06;5082088;28;19934;-85
2021/03/22 03:39:49;;;;;;;;;;;;;;;2.62;100.00;101852.97;5081330;28;20459;-86
2021/03/22 03:42:14;;;;;;;;;;;;;;;2.65;100.00;101858.09;5064388;28;20266;-85
2021/03/22 03:44:40;;;;;;;;;;;;;;;2.66;100.00;101850.03;5082312;28;19920;-81
2021/03/22 03:47:06;;;;;;;;;;;;;;;2.72;100.00;101856.78;5082794;28;19920;-83
2021/03/22 03:49:31;;;;;;;;;;;;;;;2.69;100.00;101849.84;5056715;28;20011;-82
2021/03/22 03:51:57;;;;;;;;;;;;;;;2.73;100.00;101858.47;5090114;28;19916;-83
2021/03/22 03:54:22;;;;;;;;;;;;;;;2.74;100.00;101862.84;5089320;28;19916;-85
2021/03/22 03:56:47;;;;;;;;;;;;;;;2.75;100.00;101859.25;5057215;28;19931;-84
2021/03/22 03:59:12;;;;;;;;;;;;;;;2.73;100.00;101855.81;5069667;28;19973;-85
2021/03/22 04:01:38;;;;;;;;;;;;;;;2.77;100.00;101848.56;5075316;28;19928;-84
2021/03/22 04:04:03;;;;;;;;;;;;;;;2.77;100.00;101853.88;5063825;28;20300;-84
2021/03/22 04:06:31;;;;;;;;;;;;;;;2.80;100.00;101856.34;5079436;28;19920;-81
2021/03/22 04:09:20;;;;;;;;;;;;;;;2.79;100.00;101860.81;5063928;28;20502;-84
2021/03/22 04:11:48;;;;;;;;;;;;;;;2.80;100.00;101862.50;5080409;28;19921;-83
2021/03/22 04:14:15;;;;;;;;;;;;;;;2.82;100.00;101865.94;5080140;28;19920;-86
2021/03/22 04:16:40;;;;;;;;;;;;;;;2.82;100.00;101865.94;5064547;28;19982;-84
2021/03/22 04:19:05;;;;;;;;;;;;;;;2.82;100.00;101865.94;5072882;28;20641;-84
2021/03/22 04:21:31;;;;;;;;;;;;;;;2.86;100.00;101877.19;5050925;28;19916;-81
2021/03/22 04:23:58;;;;;;;;;;;;;;;2.86;100.00;101872.75;5066890;28;20395;-83
2021/03/22 04:26:24;;;;;;;;;;;;;;;2.90;100.00;101868.97;5077474;28;19927;-85
2021/03/22 04:28:49;;;;;;;;;;;;;;;2.91;100.00;101870.69;5081794;28;19920;-81
2021/03/22 04:31:15;;;;;;;;;;;;;;;2.94;100.00;101878.47;5071282;28;20289;-82
2021/03/22 04:33:41;;;;;;;;;;;;;;;2.95;100.00;101871.38;5083252;28;19916;-82
2021/03/22 04:36:06;;;;;;;;;;;;;;;2.96;100.00;101880.16;5091553;28;19924;-84
2021/03/22 04:38:32;;;;;;;;;;;;;;;2.98;100.00;101875.63;5066023;28;19932;-83
2021/03/22 04:40:57;;;;;;;;;;;;;;;2.98;100.00;101880.94;5076574;28;19927;-82
2021/03/22 04:43:23;;;;;;;;;;;;;;;3.00;100.00;101874.63;5070681;28;19927;-84
2021/03/22 04:45:48;;;;;;;;;;;;;;;3.03;100.00;101877.09;5090861;28;19920;-81
2021/03/22 04:48:14;;;;;;;;;;;;;;;3.08;100.00;101877.69;5056414;28;19916;-86
2021/03/22 04:50:39;;;;;;;;;;;;;;;3.09;100.00;101875.88;5051547;28;20384;-86
2021/03/22 04:53:05;;;;;;;;;;;;;;;3.14;100.00;101881.78;5087818;28;19920;-85
2021/03/22 04:55:31;;;;;;;;;;;;;;;3.20;100.00;101886.72;5078978;28;20613;-83
2021/03/22 04:57:56;;;;;;;;;;;;;;;3.24;100.00;101887.38;5077479;28;19928;-86
2021/03/22 05:00:24;;;;;;;;;;;;;;;3.30;100.00;101887.88;5063715;28;19920;-85
2021/03/22 05:02:49;;;;;;;;;;;;;;;3.34;100.00;101889.41;5077639;28;20014;-83
2021/03/22 05:05:14;;;;;;;;;;;;;;;3.36;100.00;101884.84;5081080;28;20325;-84
2021/03/22 05:07:39;;;;;;;;;;;;;;;3.38;100.00;101887.41;5080601;28;20398;-84
2021/03/22 05:10:06;;;;;;;;;;;;;;;3.41;100.00;101892.53;5065536;28;19936;-81
2021/03/22 05:12:31;;;;;;;;;;;;;;;3.42;100.00;101893.38;5078834;28;20423;-84
2021/03/22 05:14:56;;;;;;;;;;;;;;;3.42;100.00;101896.91;5086690;28;20012;-81
2021/03/22 05:17:22;;;;;;;;;;;;;;;3.42;100.00;101890.75;5067168;28;20041;-87
2021/03/22 05:19:47;;;;;;;;;;;;;;;3.42;100.00;101893.38;5089998;28;19923;-85
2021/03/22 05:22:13;;;;;;;;;;;;;;;3.39;100.00;101892.66;5063566;28;20079;-81
2021/03/22 05:24:38;;;;;;;;;;;;;;;3.38;100.00;101893.56;5075390;28;20005;-85
2021/03/22 05:27:04;;;;;;;;;;;;;;;3.40;100.00;101898.81;5066692;28;19963;-82
2021/03/22 05:29:29;;;;;;;;;;;;;;;3.41;100.00;101905.81;5047025;28;19917;-84
2021/03/22 05:31:55;;;;;;;;;;;;;;;3.41;100.00;101904.97;5056953;28;19921;-85
2021/03/22 05:34:20;;;;;;;;;;;;;;;3.43;100.00;101908.38;5079530;28;19966;-86
2021/03/22 05:36:46;;;;;;;;;;;;;;;3.39;100.00;101897.97;5075797;28;20017;-86
2021/03/22 05:39:11;;;;;;;;;;;;;;;3.40;100.00;101904.13;5080316;28;19965;-87
2021/03/22 05:41:49;;;;;;;;;;;;;;;3.39;100.00;101902.38;5064633;28;20015;-86
2021/03/22 05:44:33;;;;;;;;;;;;;;;3.37;100.00;101899.84;5066299;28;20446;-82
2021/03/22 05:47:17;;;;;;;;;;;;;;;3.38;100.00;101912.16;5065106;28;19924;-85
2021/03/22 05:49:50;;;;;;;;;;;;;;;3.39;100.00;101918.31;5081245;28;20548;-82
2021/03/22 05:52:34;;;;;;;;;;;;;;;3.36;100.00;101907.88;5083250;28;20388;-83
2021/03/22 05:55:02;;;;;;;;;;;;;;;3.36;100.00;101921.13;5044955;28;19926;-83
2021/03/22 05:57:30;;;;;;;;;;;;;;;3.34;100.00;101921.25;5078433;28;19967;-84
2021/03/22 06:00:02;;;;;;;;;;;;;;;3.34;100.00;101921.25;5081496;28;19920;-83
2021/03/22 06:02:30;;;;;;;;;;;;;;;3.34;100.00;101913.28;5063474;28;19920;-82
2021/03/22 06:05:02;;;;;;;;;;;;;;;3.35;100.00;101917.63;5075577;28;19946;-84
2021/03/22 06:07:27;;;;;;;;;;;;;;;3.35;100.00;101924.75;5060266;28;19924;-84
2021/03/22 06:09:52;;;;;;;;;;;;;;;3.35;100.00;101919.44;5077916;28;20309;-85
2021/03/22 06:12:32;;;;;;;;;;;;;;;3.32;100.00;101917.81;5078675;28;19928;-83
2021/03/22 06:15:16;;;;;;;;;;;;;;;3.33;100.00;101922.16;5078370;28;20374;-85
2021/03/22 06:17:48;;;;;;;;;;;;;;;3.37;100.00;101926.38;5077899;28;19924;-84
2021/03/22 06:20:28;;;;;;;;;;;;;;;3.38;100.00;101922.75;5079709;28;19962;-85
2021/03/22 06:23:00;;;;;;;;;;;;;;;3.41;100.00;101923.53;5046985;28;19959;-83
2021/03/22 06:25:30;;;;;;;;;;;;;;;3.45;100.00;101922.41;5082299;28;19959;-85
2021/03/22 06:27:59;;;;;;;;;;;;;;;3.47;100.00;101925.81;5066390;28;20391;-85
2021/03/22 06:30:25;;;;;;;;;;;;;;;3.49;100.00;101923.94;5074409;28;19955;-83
2021/03/22 06:32:53;;;;;;;;;;;;;;;3.51;100.00;101925.56;5081238;28;20412;-83
2021/03/22 06:35:20;;;;;;;;;;;;;;;3.54;100.00;101924.50;5079339;28;20018;-85
2021/03/22 06:37:45;;;;;;;;;;;;;;;3.57;100.00;101927.00;5069199;28;19990;-86
2021/03/22 06:40:13;;;;;;;;;;;;;;;3.58;100.00;101926.03;5070229;28;19920;-84
2021/03/22 06:42:39;;;;;;;;;;;;;;;3.63;100.00;101931.09;5068032;28;20303;-83
2021/03/22 06:45:24;;;;;;;;;;;;;;;3.63;100.00;101926.63;5065441;28;19998;-86
2021/03/22 06:47:50;;;;;;;;;;;;;;;3.66;100.00;101929.09;5064168;28;20393;-84
2021/03/22 06:50:26;;;;;;;;;;;;;;;3.72;100.00;101927.88;5064638;28;19963;-84
2021/03/22 06:52:52;;;;;;;;;;;;;;;3.75;100.00;101931.19;5076020;28;20405;-83
2021/03/22 06:55:26;;;;;;;;;;;;;;;3.72;100.00;101936.69;5052635;28;20003;-87
2021/03/22 06:57:52;;;;;;;;;;;;;;;3.76;100.00;101932.91;5069405;28;20010;-83
2021/03/22 07:00:19;;;;;;;;;;;;;;;3.78;100.00;101938.97;5052888;28;20022;-82
2021/03/22 07:02:46;;;;;;;;;;;;;;;3.80;100.00;101938.91;5079954;28;20450;-85
2021/03/22 07:05:27;;;;;;;;;;;;;;;3.79;100.00;101940.69;5088314;28;19989;-85
2021/03/22 07:07:56;;;;;;;;;;;;;;;3.81;100.00;101941.44;5074804;28;20430;-85
2021/03/22 07:10:23;;;;;;;;;;;;;;;3.86;100.00;101938.53;5076505;28;19923;-84
2021/03/22 07:13:03;;;;;;;;;;;;;;;3.92;100.00;101937.31;5076347;28;20431;-84
2021/03/22 07:15:32;;;;;;;;;;;;;;;3.94;100.00;101940.69;5061030;28;20048;-82
2021/03/22 07:18:00;;;;;;;;;;;;;;;3.95;100.00;101947.75;5063370;28;19931;-85
2021/03/22 07:20:26;;;;;;;;;;;;;;;3.98;100.00;101950.19;5071647;28;20003;-83
2021/03/22 07:23:05;;;;;;;;;;;;;;;4.00;100.00;101951.81;5073793;28;20232;-83
2021/03/22 07:25:38;;;;;;;;;;;;;;;4.04;100.00;101958.66;5057652;28;19921;-87
2021/03/22 07:28:12;;;;;;;;;;;;;;;4.09;100.00;101939.78;5075110;28;20019;-85
2021/03/22 07:30:37;;;;;;;;;;;;;;;4.16;100.00;101949.06;5075646;28;19920;-83
2021/03/22 07:33:02;;;;;;;;;;;;;;;4.19;100.00;101942.72;5078306;28;20017;-87
2021/03/22 07:35:28;;;;;;;;;;;;;;;4.26;100.00;101947.56;5059844;28;19924;-82
2021/03/22 07:37:59;;;;;;;;;;;;;;;4.34;100.00;101956.84;5075356;28;19964;-84
2021/03/22 07:40:39;;;;;;;;;;;;;;;4.42;100.00;101962.53;5072065;28;19951;-87
2021/03/22 07:43:13;;;;;;;;;;;;;;;4.45;100.00;101963.19;5079633;28;19920;-86
2021/03/22 07:45:57;;;;;;;;;;;;;;;4.46;100.00;101964.03;5078324;28;19924;-85
2021/03/22 07:48:51;;;;;;;;;;;;;;;4.48;100.00;101967.47;5075472;28;20282;-85
2021/03/22 07:51:35;;;;;;;;;;;;;;;4.44;100.00;101965.97;5051727;28;19920;-85
2021/03/22 07:54:04;;;;;;;;;;;;;;;4.42;100.00;101959.88;5027622;28;19928;-83
2021/03/22 07:56:38;;;;;;;;;;;;;;;4.44;100.00;101961.50;5070715;28;19969;-83
2021/03/22 07:59:12;;;;;;;;;;;;;;;4.55;100.00;101960.84;5081796;28;19920;-86
2021/03/22 08:01:41;;;;;;;;;;;;;;;4.66;100.00;101969.00;5081942;28;20036;-82
2021/03/22 08:04:25;;;;;;;;;;;;;;;4.76;100.00;101966.59;5072285;28;20416;-84
2021/03/22 08:06:56;;;;;;;;;;;;;;;4.75;100.00;101962.22;5074488;28;19930;-87
2021/03/22 08:09:40;;;;;;;;;;;;;;;4.78;100.00;101966.50;5056614;28;20436;-85
2021/03/22 08:12:08;;;;;;;;;;;;;;;4.79;100.00;101965.53;5084038;28;19966;-84
2021/03/22 08:14:34;;;;;;;;;;;;;;;4.80;100.00;101962.75;5086570;28;20436;-86
2021/03/22 08:17:06;;;;;;;;;;;;;;;4.80;100.00;101972.56;5087467;28;20372;-85
2021/03/22 08:19:40;;;;;;;;;;;;;;;4.77;100.00;101962.13;5067225;28;19924;-85
2021/03/22 08:22:27;;;;;;;;;;;;;;;4.83;100.00;101970.53;5080811;28;20015;-86
2021/03/22 08:25:24;;;;;;;;;;;;;;;4.94;100.00;101964.53;5070647;28;20225;-86
2021/03/22 08:27:55;;;;;;;;;;;;;;;4.97;100.00;101967.00;5020459;28;19924;-84
2021/03/22 08:30:35;;;;;;;;;;;;;;;5.02;100.00;101966.72;5069617;28;20560;-83
2021/03/22 08:33:12;;;;;;;;;;;;;;;5.06;100.00;101974.38;5059562;28;19928;-83
2021/03/22 08:35:41;;;;;;;;;;;;;;;5.07;100.00;101970.78;5077722;28;20376;-86
2021/03/22 08:38:10;;;;;;;;;;;;;;;5.09;100.00;101968.00;5078357;28;20241;-84
2021/03/22 08:40:38;;;;;;;;;;;;;;;5.14;100.00;101982.72;5055920;28;19988;-84
2021/03/22 08:43:06;;;;;;;;;;;;;;;5.25;100.00;101978.53;5075126;28;19972;-85
2021/03/22 08:45:38;;;;;;;;;;;;;;;5.21;100.00;101983.19;5060151;28;19939;-85
2021/03/22 08:48:04;;;;;;;;;;;;;;;5.15;100.00;101976.47;5065623;28;19944;-85
2021/03/22 08:50:33;;;;;;;;;;;;;;;5.22;100.00;101984.03;5082803;28;19916;-85
2021/03/22 08:53:11;;;;;;;;;;;;;;;5.17;100.00;101987.84;5065762;28;19916;-86
2021/03/22 08:55:46;;;;;;;;;;;;;;;5.17;100.00;101987.84;5062267;28;19973;-87
2021/03/22 08:58:30;;;;;;;;;;;;;;;5.19;100.00;101979.78;5071800;28;20323;-86
2021/03/22 09:01:16;;;;;;;;;;;;;;;5.39;100.00;101986.44;5087042;28;19920;-84
2021/03/22 09:03:43;;;;;;;;;;;;;;;5.63;100.00;101979.47;5074737;28;19924;-85
2021/03/22 09:06:08;;;;;;;;;;;;;;;5.66;98.95;101981.09;5080439;28;19924;-83
2021/03/22 09:08:35;;;;;;;;;;;;;;;5.70;97.34;101987.94;5069886;28;19974;-84
2021/03/22 09:11:27;;;;;;;;;;;;;;;5.76;96.76;101978.66;5090034;28;19959;-83
2021/03/22 09:13:58;;;;;;;;;;;;;;;5.87;94.47;101981.47;5036007;28;19925;-83
2021/03/22 09:16:23;;;;;;;;;;;;;;;5.95;94.61;101979.13;5050754;28;19923;-84
2021/03/22 09:19:07;;;;;;;;;;;;;;;6.13;93.73;101978.81;5070548;28;19932;-84
2021/03/22 09:21:33;;;;;;;;;;;;;;;6.29;92.76;101984.78;5067555;28;20231;-84
2021/03/22 09:23:58;;;;;;;;;;;;;;;6.24;91.49;101978.94;5066815;28;20053;-85
2021/03/22 09:26:53;;;;;;;;;;;;;;;6.25;91.58;101975.31;5053766;28;19965;-86
2021/03/22 09:29:31;;;;;;;;;;;;;;;6.17;93.01;101983.00;5097761;28;20403;-85
2021/03/22 09:31:56;;;;;;;;;;;;;;;5.97;93.90;101981.69;5068519;28;20388;-85
2021/03/22 09:34:21;;;;;;;;;;;;;;;5.85;94.66;101978.88;5067257;28;19920;-86
2021/03/22 09:36:48;;;;;;;;;;;;;;;5.84;95.51;101984.31;5066322;28;19950;-88
2021/03/22 09:39:19;;;;;;;;;;;;;;;5.79;95.69;101989.13;5073727;28;19924;-83
2021/03/22 09:42:03;;;;;;;;;;;;;;;5.84;96.65;101986.97;5080684;28;19920;-86
2021/03/22 09:44:31;;;;;;;;;;;;;;;5.85;96.92;101996.69;5069634;28;20281;-84
2021/03/22 09:47:05;;;;;;;;;;;;;;;5.86;96.17;101993.06;5059845;28;20381;-87
2021/03/22 09:49:32;;;;;;;;;;;;;;;5.86;96.78;102001.88;5072046;28;19920;-87
2021/03/22 09:52:14;;;;;;;;;;;;;;;5.87;97.00;102008.09;5067317;28;19924;-85
2021/03/22 09:54:41;;;;;;;;;;;;;;;5.87;96.76;102010.75;5085749;28;19969;-86
2021/03/22 09:57:22;;;;;;;;;;;;;;;5.84;96.52;102006.50;5087849;28;20380;-84
2021/03/22 10:00:19;;;;;;;;;;;;;;;5.88;97.39;102007.13;5067764;28;19920;-86
2021/03/22 10:02:50;;;;;;;;;;;;;;;5.82;95.74;102007.56;5062319;28;19920;-84
2021/03/22 10:05:18;;;;;;;;;;;;;;;5.86;96.14;102001.03;5064741;28;20376;-86
2021/03/22 10:07:50;;;;;;;;;;;;;;;5.88;95.71;101997.31;5085718;28;19951;-85
2021/03/22 10:10:33;;;;;;;;;;;;;;;5.88;93.82;102001.81;5069510;28;20381;-86
2021/03/22 10:13:08;;;;;;;;;;;;;;;5.91;93.40;101998.94;5056834;28;19920;-85
2021/03/22 10:15:46;;;;;;;;;;;;;;;5.97;94.35;101998.53;5067518;28;19931;-84
2021/03/22 10:18:11;;;;;;;;;;;;;;;6.02;93.69;101996.41;5064357;28;20345;-87
2021/03/22 10:20:36;;;;;;;;;;;;;;;6.05;92.88;101988.22;5085338;28;19951;-87
2021/03/22 10:23:16;;;;;;;;;;;;;;;6.10;92.58;101987.91;5083930;28;20014;-88
2021/03/22 10:25:43;;;;;;;;;;;;;;;6.10;91.75;101994.09;5074638;28;19931;-87
2021/03/22 10:28:15;;;;;;;;;;;;;;;6.24;91.68;101994.91;5088061;28;20068;-85
2021/03/22 10:30:51;;;;;;;;;;;;;;;6.28;89.82;102004.44;5087418;28;19916;-84
2021/03/22 10:33:17;;;;;;;;;;;;;;;6.36;91.14;102002.09;5077782;28;19986;-87
2021/03/22 10:35:49;;;;;;;;;;;;;;;6.38;90.06;101992.13;5069042;28;19992;-86
2021/03/22 10:38:35;;;;;;;;;;;;;;;6.41;90.61;101985.75;5088663;28;20026;-86
2021/03/22 10:41:03;;;;;;;;;;;;;;;6.48;90.04;101981.69;5069285;28;27678;-85
2021/03/22 10:43:30;;;;;;;;;;;;;;;6.73;90.96;101986.13;5062466;28;19939;-86
2021/03/22 10:46:13;;;;;;;;;;;;;;;6.64;88.13;102002.78;5049902;28;19962;-87
2021/03/22 10:48:39;;;;;;;;;;;;;;;6.64;87.29;102000.13;5080853;28;20055;-85
2021/03/22 10:51:06;;;;;;;;;;;;;;;6.68;87.43;102005.13;5062551;28;20330;-85
2021/03/22 10:53:32;;;;;;;;;;;;;;;6.66;88.29;102011.53;5080698;28;19920;-86
2021/03/22 10:56:13;;;;;;;;;;;;;;;6.63;88.73;102019.75;5068716;28;19920;-86
2021/03/22 10:58:38;;;;;;;;;;;;;;;6.55;88.19;102022.97;5078072;28;19977;-87
2021/03/22 11:01:05;;;;;;;;;;;;;;;6.47;89.52;102022.63;5077234;28;19924;-86
2021/03/22 11:03:31;;;;;;;;;;;;;;;6.39;88.95;102028.53;5067034;28;19921;-86
2021/03/22 11:05:56;;;;;;;;;;;;;;;6.34;89.43;102025.31;5047870;28;20593;-85
2021/03/22 11:08:30;;;;;;;;;;;;;;;6.31;88.98;102026.38;5060751;28;20288;-84
2021/03/22 11:11:03;;;;;;;;;;;;;;;6.36;89.57;102030.53;5052894;28;20353;-85
2021/03/22 11:13:30;;;;;;;;;;;;;;;6.41;90.00;102031.91;5084457;28;20389;-86
2021/03/22 11:15:56;;;;;;;;;;;;;;;6.41;89.48;102023.91;5078548;28;19927;-86
2021/03/22 11:18:21;;;;;;;;;;;;;;;6.41;89.28;102031.06;5074840;28;19924;-85
2021/03/22 11:20:49;;;;;;;;;;;;;;;6.48;90.04;102030.53;5074626;28;20003;-85
2021/03/22 11:23:15;;;;;;;;;;;;;;;6.49;89.50;102026.91;5079117;28;19993;-85
2021/03/22 11:25:40;;;;;;;;;;;;;;;6.45;88.81;102038.75;5071774;28;20392;-85
2021/03/22 11:28:15;;;;;;;;;;;;;;;6.50;89.57;102041.09;5065435;28;19924;-87
2021/03/22 11:30:57;;;;;;;;;;;;;;;6.47;89.14;102036.84;5068556;28;20061;-86
2021/03/22 11:33:25;;;;;;;;;;;;;;;6.39;87.57;102036.53;5071849;28;19970;-87
2021/03/22 11:36:02;;;;;;;;;;;;;;;6.30;88.98;102038.03;5096730;28;19935;-85
2021/03/22 11:38:48;;;;;;;;;;;;;;;6.42;89.92;102036.31;5088748;28;19921;-86
2021/03/22 11:41:33;;;;;;;;;;;;;;;6.42;88.38;102030.97;5089509;28;19925;-86
2021/03/22 11:44:19;;;;;;;;;;;;;;;6.49;88.90;102037.56;5064149;28;20019;-86
2021/03/22 11:46:45;;;;;;;;;;;;;;;6.51;87.93;102030.31;5059486;28;19927;-85
2021/03/22 11:49:30;;;;;;;;;;;;;;;6.61;88.82;102035.84;5088057;28;19924;-86
2021/03/22 11:51:57;;;;;;;;;;;;;;;6.82;89.60;102025.50;5048183;28;20023;-87
2021/03/22 11:54:22;;;;;;;;;;;;;;;6.92;87.34;102023.84;5070384;28;19977;-86
2021/03/22 11:56:59;;;;;;;;;;;;;;;6.94;87.40;102021.09;5082926;28;20357;-85
2021/03/22 11:59:25;;;;;;;;;;;;;;;6.90;85.61;102024.94;5066706;28;19927;-88
2021/03/22 12:02:08;;;;;;;;;;;;;;;6.92;87.41;102023.84;5067211;28;19920;-86
2021/03/22 12:04:35;;;;;;;;;;;;;;;7.03;85.89;102025.75;5075874;28;19974;-86
2021/03/22 12:07:00;;;;;;;;;;;;;;;7.04;84.85;102011.44;5066804;28;19920;-84
2021/03/22 12:09:26;;;;;;;;;;;;;;;7.07;87.24;102013.03;5079492;28;20140;-84
2021/03/22 12:11:53;;;;;;;;;;;;;;;7.15;86.12;102013.34;5072097;28;19916;-86
2021/03/22 12:14:18;;;;;;;;;;;;;;;7.21;85.15;102013.72;5086197;28;20035;-86
2021/03/22 12:16:43;;;;;;;;;;;;;;;7.31;84.39;102016.59;5069239;28;19999;-85
2021/03/22 12:19:14;;;;;;;;;;;;;;;7.39;83.90;102016.88;5054051;28;19928;-87
2021/03/22 12:21:40;;;;;;;;;;;;;;;7.37;83.86;102008.13;5059152;28;19935;-85
2021/03/22 12:24:05;;;;;;;;;;;;;;;7.42;84.09;102016.66;5063573;28;19922;-85
2021/03/22 12:26:32;;;;;;;;;;;;;;;7.45;83.09;102016.44;5088689;28;19920;-87
2021/03/22 12:28:59;;;;;;;;;;;;;;;7.43;83.21;102022.84;5078340;28;19977;-85
2021/03/22 12:31:26;;;;;;;;;;;;;;;7.33;84.94;102027.16;5047810;28;19927;-85
2021/03/22 12:33:52;;;;;;;;;;;;;;;7.33;83.63;102028.00;5065348;28;19969;-85
2021/03/22 12:36:18;;;;;;;;;;;;;;;7.35;84.84;102031.41;5078757;28;19924;-85
2021/03/22 12:38:43;;;;;;;;;;;;;;;7.28;84.86;102030.16;5092658;28;19935;-86
2021/03/22 12:41:10;;;;;;;;;;;;;;;7.15;84.66;102026.69;5090179;28;20308;-86
2021/03/22 12:43:36;;;;;;;;;;;;;;;7.14;85.19;102033.84;5079970;28;20422;-86
2021/03/22 12:46:02;;;;;;;;;;;;;;;7.22;86.12;102035.94;5081159;28;19928;-86
2021/03/22 12:48:27;;;;;;;;;;;;;;;7.15;85.22;102021.34;5074997;28;20607;-86
2021/03/22 12:50:54;;;;;;;;;;;;;;;7.17;86.28;102024.75;5069444;28;19931;-86
2021/03/22 12:53:19;;;;;;;;;;;;;;;7.20;86.79;102035.22;5070062;28;20582;-87